Ivy, Iowa
Current Conditions -  °F | °C
As of 11:55 PM on Thursday 30 Oct 2014 (Local Time) from KIKV Reporting Station
Broken Clouds Broken Clouds  
Wind Chill: 37°   Ceiling: 7000
Heat Index: 45°   Visibility: 10mi
Dew Point: 32°   Wind: 16mph
Humidity: 61%   Direction: 360°N
Pressure: 30.26"   Gusts: 28mph
Location:  41.6405°N, 93.4586°W
Report Text: KIKV 310455Z AUTO 36014G24KT 10SM SCT033 SCT038 BKN070 07/00 A3026 RMK AO2
Loading
Personal Weather Stations






























Interactive Weather Map
Tropical Storm Tracking
New forecast layout! Learn more

10-Day Weather Forecast

Advertisements
Track Severe Weather on mobile